FAI orgVALCOMINO CUP 2019AeC Lega Piloti ASDASD ClubPR

Val Comino CUP 2019 - Campionato italiano

2019-08-25 to 2019-08-31, FAI Category 2 event

29/08/2019 - Overall - Open

2019-08-28 28/08/2019 - Task 4

Race to Goal 82.7 km

Official

No Leg Dist. Id Radius Open Close Coordinates Altitude
1 0.0 km D015 400 m 12:20 14:20 Lat: 41.67772 Lon: 13.87242 1265 m
2 SS 0.6 km D015 1000 m 13:30 20:00 Lat: 41.67772 Lon: 13.87242 1265 m
3 7.6 km A001 400 m 13:30 20:00 Lat: 41.70205 Lon: 13.78014 431 m
4 9.5 km B040 400 m 13:30 20:00 Lat: 41.70854 Lon: 13.7594 570 m
5 20.1 km B057 1000 m 13:30 20:00 Lat: 41.75457 Lon: 13.63587 500 m
6 30.3 km B032 2000 m 13:30 20:00 Lat: 41.65536 Lon: 13.71898 510 m
7 46.8 km B077 1000 m 13:30 20:00 Lat: 41.73034 Lon: 13.50789 1210 m
8 63.9 km B118 3000 m 13:30 20:00 Lat: 41.627 Lon: 13.69441 690 m
9 75.6 km B001 1000 m 13:30 20:00 Lat: 41.67019 Lon: 13.85046 780 m
10 ES 80.9 km A010 2000 m 13:30 20:00 Lat: 41.68788 Lon: 13.75389 420 m
11 82.7 km A010 200 m 13:30 20:00 Lat: 41.68788 Lon: 13.75389 420 m
StartGate(s): 13:30

# Id Name Nat Glider Sponsor SS ES Time km/h Distance Dist.
Points
Lead.
Points
Time
Points
Total
1 133 Alessandro FUZZI M ITA Ozone Zeno 13:30:00 16:56:17 03:26:17 23.4 82.71 659.7 85.0 230.8 976
2 113 Marco BUSETTA M ITA Ozone Enzo 3 Bullet Speedbar - Ilpistacchio.It 13:30:00 17:11:08 03:41:08 21.8 82.71 659.7 109.6 187.7 957
3 198 Biagio Alberto VITALE M ITA Ozone Enzo 3 Aire Corbelli Dmd Casarini Tana Del Riccio Infopro 13:30:00 17:11:11 03:41:11 21.8 82.71 659.7 101.8 187.6 949
4 139 Gabriele GARDINI M ITA Flow Spectra Fluo Flights 13:30:00 17:07:05 03:37:05 22.2 82.71 659.7 86.1 197.7 944
5 118 Alberto CASTAGNA M ITA Ozone Zeno Www.Ti-Srl.Ti 13:30:00 17:09:49 03:39:49 21.9 82.71 659.7 89.8 190.9 940
6 156 Marco LITTAMÈ M ITA Flow Spectra Luca-Lisa 13:30:00 17:06:24 03:36:24 22.3 82.71 659.7 67.3 199.5 927
7 122 Gianfranco CRESTANI M ITA Flow XC RACER Fado’ Pub Compass 13:30:00 17:02:35 03:32:35 22.7 82.71 659.7 56.5 209.7 926
8 162 Andreas MALECKI M GER Ozone Enzo 3 Mwz 24 Flugschule-Chiemsee.De Ozone Dhv 13:30:00 17:12:30 03:42:30 21.7 82.71 659.7 74.9 184.4 919
9 190 Evangelos STAMELLOS M GRE GIN Leopard Www.O2Paragliding.Gr 13:30:00 17:12:33 03:42:33 21.7 82.71 659.7 68.8 184.3 913
9 180 Alfio RAGAGLIA M ITA Ozone Enzo 3 13:30:00 17:06:34 03:36:34 22.2 82.71 659.7 54.1 199.1 913
11 155 Cyril LAMBERT M FRA UP Guru Up 13:30:00 17:14:02 03:44:02 21.5 82.71 659.7 64.2 180.8 905
12 192 Uwe TILLMANN M GER Ozone Enzo 3 13:30:00 17:14:07 03:44:07 21.5 82.71 659.7 56.5 180.6 897
13 135 Michele GAIBA M ITA Ozone Zeno My Iban Spa 13:30:00 17:16:34 03:46:34 21.3 82.71 659.7 39.1 174.9 874
14 165 Yevgen MIKHALCHUK M UKR Skywalk Poison X-alps 13:30:00 17:31:57 04:01:57 19.9 82.71 659.7 59.1 141.3 860
15 167 Giuliano MINUTELLA M ITA Flow Spectra Eo Corp Ciro Spataro Medical Device Kortel 13:30:00 17:55:25 04:25:25 18.2 82.71 659.7 66.6 94.5 821
16 105 Loris BERTA M ITA Ozone Enzo 3 Compass 13:30:00 17:01:46 03:31:46 22.8 81.41 649.3 86.7 736
17 178 Gianbasilio PROFITI M ITA GIN Boomerang 11 Auri 13:30:00 79.05 630.4 89.1 720
18 188 Walter SCHERLIN M ITA Ozone Enzo 3 13:30:00 78.21 623.8 95.5 719
19 114 Silvia BUZZI FERRARIS F ITA Ozone Enzo 3 Pandolf-Fly 13:30:00 79.30 632.5 67.9 700
20 149 Cristian INVERARDI M ITA Niviuk Icepeak Evox Nbb Infinity 13:30:00 80.85 644.9 53.2 698
20 163 Luca MAMMUCARI M ITA Flow Spectra 13:30:00 17:52:20 04:22:20 18.4 81.86 652.9 45.0 698
20 183 Marek ROBEL M POL UP Guru Diagmatic 13:30:00 74.81 596.7 101.4 698
23 121 Roberto COSTANTINO M ITA Ozone Enzo 3 13:30:00 17:17:54 03:47:54 21.1 81.12 647.0 50.1 697
24 107 Oliver BLONSKE M GER Flow XC Racer Mwz 24 13:30:00 78.86 628.9 66.9 696
25 140 Andrea GAROLLA M ITA Ozone Enzo 3 No 13:30:00 79.26 632.2 54.1 686
26 126 Tudor DOROBANTU M ROU UP Meru Slavia Pharm , Tellur , Masina Engineering 13:30:00 77.88 621.2 43.6 665
27 111 Federico BROWN MANZONE M ITA Ozone Enzo 3 Nuddu E Nenti 13:30:00 76.68 611.6 42.9 655
28 129 Paolo FACCHINI M ITA GIN Boomerang 11 / 13:30:00 74.22 592.0 56.8 649
29 174 Piergiorgio PINTOSSI M ITA Ozone Zeno Pel 13:30:00 74.95 597.8 38.0 636
30 181 Massimo RAPARI M ITA Ozone Zeno 13:30:00 67.81 540.8 84.9 626
31 172 Luca PAOLETTI M ITA Ozone Zeno 13:30:00 64.57 515.0 68.3 583
32 146 Remo GUCCIARDI M ITA Ozone Zeno Io 13:30:00 62.38 497.5 40.7 538
33 179 Stefano PUCCI M ITA Ozone Zeno My Wife 13:30:00 60.71 484.2 51.6 536
33 170 Paul Daniel PADURARU M ITA Ozone Alpina 3 Pro Blade Service. Orbital Italia. Slashto. I Falchi Di Federico 13:30:00 60.54 482.8 53.2 536
35 166 Mike MILLER M GBR UP Meru Up Paragliders Uk 13:30:00 59.62 475.5 49.4 525
36 152 Jacek KRZYZANOWSKI M POL Advance Sigma 10 Www.Poppyfarm.Pl 13:30:00 58.93 470.0 51.4 521
37 161 Maurizio MAINA M ITA Ozone Enzo 3 Floricoltura Pecettese 13:30:00 79.72 635.8 74.5 519
38 142 Matteo GIULIANI M ITA Niviuk Artik 4 13:30:00 59.55 475.0 43.1 518
39 148 Bence HALASZ M HUN Ozone Zeno 13:30:00 59.16 471.8 38.3 510
40 127 Angelo DELL'AIRA M ITA Ozone Zeno Idrotech 13:30:00 58.99 470.5 38.6 509
41 123 Giorgio DARRA M ITA Niviuk Icepeak Evox Pel 13:30:00 58.89 469.7 37.4 507
42 153 Jakub KWIATKOWSKI M POL UP Trango X-Race Gcg 13:30:00 57.62 459.5 42.6 502
43 106 Daniele BEVILACQUA M ITA Flow Xc Racer 13:30:00 56.71 452.3 44.5 497
44 203 Matteo SIRAGNA M ITA Ozone Mantra 7 Bar Gallo Case Rosse Selvarek 13:30:00 57.40 457.8 38.0 496
45 196 Alessandro VALLERO M ITA Ozone Zeno Vairbration 13:30:00 56.97 454.4 39.3 494
46 150 Slawomir KACZYNSKI M POL Ozone Enzo 3 Etu 13:30:00 56.70 452.2 40.4 493
47 101 Marco ALESSANDRINI M ITA Ozone Zeno Www.Concadoro.Com 13:30:00 56.61 451.5 36.9 488
48 119 Ivan CENTA M ITA UP Meru Superfly 360 Team Alpenplus 13:30:00 17:21:27 03:51:27 20.8 82.71 659.7 62.3 163.9 487
49 143 Antonio GOLFARI M ITA Ozone Zeno 13:30:00 56.69 452.2 29.6 482
50 103 Fabio BALZARANI M ITA Ozone Enzo 3 Me 13:30:00 59.33 473.2 473
51 112 Bruno BRUGNOLO M ITA GIN Boomerang 11 Compass - Next Generation Fight Instruments 13:30:00 56.87 453.6 15.3 469
52 104 Hannes BAUER M ITA Flow Xc Racer 13:30:00 56.86 453.5 454
53 125 Didier DE SAINT ETIENNE M FRA UP Guru No 13:30:00 51.59 411.5 30.7 442
54 184 Elio ROSSI M ITA Ozone Enzo 3 Didiemme 13:30:00 52.54 419.0 1.7 421
55 102 Matteo BACCHIOCCHI M ITA UP Meru Omfcrushingplants 13:30:00 46.90 374.1 15.3 389
56 187 Roberto SALSI M ITA Ozone Mantra M7 Zenit Formazione 13:30:00 47.36 377.7 378
57 186 Andrea SAIONI M ITA Ozone Mantra M7 Para Delta Club Feltre 13:30:00 44.69 356.4 20.3 377
58 199 Davide ZALTRON M ITA Ozone Zeno Io Lo Porto A Casa 13:30:00 46.23 368.7 369
59 145 Federico GUATTERI M ITA Ozone Zeno Elettromeccanica Medici 13:30:00 42.23 336.8 337
60 154 Sandy LAMBERT F FRA Ozone Mantra M7 13:30:00 40.97 326.7 327
61 191 Martin STECHER M ITA UP Trango X-Race *** Speck && Kaas *** 13:30:00 40.10 319.8 320
62 202 Agata KOWALSKA F POL 777 Queen 2 13:30:00 39.62 316.0 316
63 136 Bartek GALANTY M POL Triple Seven Queen 2 13:30:00 39.11 311.9 312
64 141 Marco GENTILINI M ITA Flow XC Racer 13:30:00 38.80 309.5 310
65 177 Martin PRINOTH M ITA Niviuk Artik P 4 Sangemini 13:30:00 38.55 307.5 308
66 117 Mirco CASARINI M ITA Ozone Zeno No 13:30:00 37.96 302.8 303
67 195 Marco VALENTINI M ITA Ozone Zeno Malloy 13:30:00 37.55 299.5 300
68 151 Ioannis KARASIMOS M GRE GIN Boomerang Oxygenparagliding.Gr 13:30:00 36.49 291.0 291
69 130 Marco FLANDINA M ITA Ozone Rush 5 13:30:00 35.13 280.2 280
70 168 Federico NEVASTRO M ITA Swing Agera RS Omnia Costruzioni 13:30:00 34.70 276.7 277
70 171 Luciano PAGNONI M ITA Ozone Enzo 3 Www.Lisen.It 13:30:00 34.77 277.3 277
72 185 Antonio RUTA M ITA Ozone Enzo 3 Ass Altivoli 13:30:00 33.74 269.1 269
73 164 Michele MIEGGE M ITA Ozone Alpina Io 13:30:00 33.57 267.7 268
74 144 Rasa GRIGORAITIENE F LTU Ozone Zeno Abipa 13:30:00 32.39 258.3 258
75 110 Michele BOSCHI M ITA UP Guru Up Paragliders - Sport Professional - Paradelta - Digifly - Aeci - Corsair - Air 13:30:00 30.20 240.8 241
75 138 Eugenio GAMBARI M ITA Flow Spectra 13:30:00 30.19 240.8 241
77 108 Gabriele BONAFINI M ITA Advance Sigma 10 13:30:00 29.76 237.4 237
78 134 Richárd GABRIELI M HUN Niviuk Peak 4 Flyaway 13:30:00 40.49 323.0 226
79 132 Roberto FORTI M ITA Ozone Zeno 13:30:00 27.75 221.3 221
80 194 Tiziano TRAMBAIOLI M ITA Flow Spectra Flow Paragliders 13:30:00 27.18 216.8 217
81 124 Gabriele D'ARRIGO M ITA Ozone Enzo 3 Brasulrecca - Ai Pini 13:30:00 25.98 207.2 207
82 200 Paolo ZAMMARCHI M ITA GIN Boomerang 11 Pel-Team Sv-Check Point Cornizzolo 13:30:00 25.85 206.2 206
83 176 Alessandro POMPEI M ITA Ozone Delta 3 13:30:00 22.43 178.9 179
84 193 Moreno TONIN M ITA Ozone Zeno 13:30:00 17:13:10 03:43:10 21.6 81.87 653.0 49.2 176
85 116 Tommaso CARLINI M ITA Ozone Delta 3 13:30:00 32.11 256.1 87
86 158 Carel LUEBBIG M SUI Flow Spectra Flyproducts.Ch 13:30:00 10.49 83.7 84
87 173 Flavio PERONA M ITA Advance Omega XAlp 2 Vairbration 13:30:00 7.85 62.6 63
88 159 Jan LUEBBIG M SUI Flow Spectra Flyproducts.Ch 13:30:00 6.76 53.9 54
89 169 Angela OLVBACK F ITA Skywalk Chili 4 Giuliano Minutella 13:30:00 5.86 46.7 47
90 109 Giampietro BONARDI M ITA Flow Xc Racer Www.Svpievanisnc.It Team Sv 5.00 39.9 40
90 189 Heinz SENONER M ITA GIN Explorer 5.00 39.9 40
90 204 Sergio DI FAZIO M ITA Niviuk IcePeak 7 pro AeroClub della Ciociaria 5.00 39.9 40
90 197 Paolo VERATTI M ITA Ozone Zeno 5.00 39.9 40
90 120 Rodrigue CHER M FRA Ozone Zeno 5.00 39.9 40
90 201 Lorenzo ZAMPROGNO M ITA Ozone Mantra M7 Io 5.00 39.9 40
90 160 Alessandro MADALUNI M ITA Ozone Rush 5 My Wife. 5.00 39.9 40
97 182 Luca RIZZO M ITA Ozone Zeno DNF 0.0 0
97 131 Giovanni FONTANESI M ITA UP Meru Magari DNF 0.0 0
97 137 Luciano GALLO M ITA Ozone Enzo 3 13:30:00 17:16:26 03:46:26 21.3 82.71 659.7 71.9 175.2 0
97 175 Fulvio POLCINI M ITA Ozone Enzo 3 13:30:00 33.67 268.5 0

Notes

Id Name Note
102 Matteo BACCHIOCCHI Less than 100 meters from the airspace
103 Fabio BALZARANI Less than 100 meters from the airspace
104 Hannes BAUER Less than 100 meters from the airspace
108 Gabriele BONAFINI Less than 100 meters from the airspace
113 Marco BUSETTA Less than 100 meters from the airspace
114 Silvia BUZZI FERRARIS Less than 100 meters from the airspace
118 Alberto CASTAGNA Less than 100 meters from the airspace
122 Gianfranco CRESTANI Less than 100 meters from the airspace
123 Giorgio DARRA Less than 100 meters from the airspace
125 Didier DE SAINT ETIENNE Less than 100 meters from the airspace
127 Angelo DELL'AIRA Less than 100 meters from the airspace
129 Paolo FACCHINI Less than 100 meters from the airspace
133 Alessandro FUZZI Less than 100 meters from the airspace
139 Gabriele GARDINI Less than 100 meters from the airspace
141 Marco GENTILINI Less than 100 meters from the airspace
142 Matteo GIULIANI Less than 100 meters from the airspace
143 Antonio GOLFARI Less than 100 meters from the airspace
148 Bence HALASZ Less than 100 meters from the airspace
150 Slawomir KACZYNSKI Less than 100 meters from the airspace
152 Jacek KRZYZANOWSKI Less than 100 meters from the airspace
153 Jakub KWIATKOWSKI Less than 100 meters from the airspace
155 Cyril LAMBERT Less than 100 meters from the airspace
156 Marco LITTAMÈ Less than 100 meters from the airspace
162 Andreas MALECKI Less than 100 meters from the airspace
166 Mike MILLER Less than 100 meters from the airspace
167 Giuliano MINUTELLA Less than 100 meters from the airspace
168 Federico NEVASTRO Less than 100 meters from the airspace
172 Luca PAOLETTI Less than 100 meters from the airspace
173 Flavio PERONA Less than 100 meters from the airspace
179 Stefano PUCCI Less than 100 meters from the airspace
181 Massimo RAPARI Less than 100 meters from the airspace
183 Marek ROBEL Less than 100 meters from the airspace
185 Antonio RUTA Less than 100 meters from the airspace
186 Andrea SAIONI Less than 100 meters from the airspace
188 Walter SCHERLIN Less than 100 meters from the airspace
190 Evangelos STAMELLOS Less than 100 meters from the airspace
192 Uwe TILLMANN Less than 100 meters from the airspace
195 Marco VALENTINI Less than 100 meters from the airspace
198 Biagio Alberto VITALE Less than 100 meters from the airspace
200 Paolo ZAMMARCHI Less than 100 meters from the airspace

Penalties

Note: % penalty is used to calc penalty as a % of total score. Both types can be combined. None affect the scoring of other pilots.
Id Name % penalty points penalty Reason
116 Tommaso CARLINI 66% 0 66% - 22 m. airspace infringement
119 Ivan CENTA 45% 0 45% - 15 m. airspace infringement
134 Richárd GABRIELI 30% 0 30% - 10 m. airspace infringement
137 Luciano GALLO 100% 0 100% Airspace infringement over 30 m.
161 Maurizio MAINA 27% 0 27% - 9 m. airspace infringement
175 Fulvio POLCINI 100% 0 100% Airspace infringement over 30 m.
193 Moreno TONIN 75% 0 75% - 25 m. airspace infringement

Pilots absent from task (ABS)

Id Name
115 Vadym BYELKIN
128 Normann D'ORLANDO
147 Alessio GUIDI
157 Walter LO GIUDICE

Pilots not yet processed (NYP)

Id Name

Task statistics

param value
ss_distance 80.307
task_distance 82.708
launch_to_ess_distance 80.907
no_of_pilots_present 100
no_of_pilots_flying 98
no_of_pilots_lo 81
no_of_pilots_reaching_nom_dist 59
no_of_pilots_reaching_es 21
no_of_pilots_reaching_goal 17
sum_flown_distance 5153.315
best_dist 82.708
best_time 3.43805555555556
worst_time 4.42361111111111
no_of_pilots_in_competition 104
no_of_pilots_landed_before_stop 0
sum_dist_over_min 4695.528
sum_real_dist_over_min 4695.528
sum_flown_distances 5153.315
best_real_dist 82.708
last_start_time 2019-08-28T13:30:00+02:00
first_start_time 2019-08-28T13:30:00+02:00
first_finish_time 2019-08-28T16:56:17+02:00
max_time_to_get_time_points 5.2922549934682
no_of_pilots_with_time_points 17
goalratio 0.173469387755102
arrival_weight 0
departure_weight 0
leading_weight 0.059560146999762
time_weight 0.280783550141735
distance_weight 0.659656302858503
smallest_leading_coefficient 2.08906213586513
available_points_distance 659.656302858503
available_points_time 230.783550141735
available_points_departure 0
available_points_leading 109.560146999762
available_points_arrival 0
time_validity 1
launch_validity 1
distance_validity 1
stop_validity 1
day_quality 1
ftv_day_validity 1
time_points_stop_correction 0

Scoring formula settings

param value
id PWC2017
min_dist 5
nom_dist 45
nom_time 1.5
nom_launch 0.96
nom_goal 0.3
day_quality_override 0
bonus_gr 4
jump_the_gun_factor 0
jump_the_gun_max 0
normalize_1000_before_day_quality 0
time_points_if_not_in_goal 0
use_1000_points_for_max_day_quality 0
use_arrival_position_points 0
use_arrival_time_points 0
use_departure_points 0
use_difficulty_for_distance_points 0
use_distance_points 1
use_distance_squared_for_LC 1
use_leading_points 1
use_semi_circle_control_zone_for_goal_line 1
use_time_points 1
scoring_altitude GPS
final_glide_decelerator none
no_final_glide_decelerator_reason
min_time_span_for_valid_task 60
score_back_time 5
use_proportional_leading_weight_if_nobody_in_goal 0
leading_weight_factor 1
turnpoint_radius_tolerance 0.001
Report created: 2019-08-29T17:31:18+02:00

FS development, maintenance and support by